Time;durP1;ratioP1;P1;durP2;ratioP2;P2;SDS_P1;SDS_P2;PMS_P1;PMS_P2;Temp;Humidity;BMP_temperature;BMP_pressure;BME280_temperature;BME280_humidity;BME280_pressure;Samples;Min_cycle;Max_cycle;Signal;HPM_P1;HPM_P2
2023/05/19 00:01:36;;;;;;;9.30;4.65;;;14.00;79.90;;;;;;5012625;28;20034;-48
2023/05/19 00:04:22;;;;;;;7.43;4.35;;;14.00;80.00;;;;;;5010157;28;20398;-44
2023/05/19 00:07:15;;;;;;;8.52;4.50;;;14.00;80.00;;;;;;5013422;28;20080;-47
2023/05/19 00:10:01;;;;;;;11.95;4.80;;;14.00;80.20;;;;;;5026445;28;20025;-47
2023/05/19 00:12:48;;;;;;;9.52;4.45;;;14.00;80.00;;;;;;5023325;28;20108;-45
2023/05/19 00:15:34;;;;;;;8.88;3.80;;;14.00;79.90;;;;;;5012455;28;20605;-49
2023/05/19 00:18:21;;;;;;;9.15;3.95;;;13.90;79.80;;;;;;4992879;28;20043;-46
2023/05/19 00:21:08;;;;;;;8.57;3.58;;;13.90;80.00;;;;;;5005164;28;20034;-45
2023/05/19 00:23:55;;;;;;;7.50;4.20;;;13.90;80.00;;;;;;5005223;28;20116;-45
2023/05/19 00:26:41;;;;;;;10.20;4.35;;;13.90;80.20;;;;;;5014278;28;20021;-49
2023/05/19 00:29:27;;;;;;;12.25;4.00;;;13.90;80.30;;;;;;5012835;28;20025;-48
2023/05/19 00:32:14;;;;;;;9.38;4.28;;;13.90;80.30;;;;;;5011586;28;20034;-48
2023/05/19 00:35:00;;;;;;;11.25;4.72;;;13.90;80.40;;;;;;5012429;28;20021;-46
2023/05/19 00:37:46;;;;;;;7.93;3.88;;;13.80;80.20;;;;;;5011401;28;20065;-45
2023/05/19 00:40:35;;;;;;;7.70;4.20;;;13.80;80.40;;;;;;5012311;28;20045;-45
2023/05/19 00:43:21;;;;;;;6.72;3.80;;;13.70;80.40;;;;;;5010897;28;20041;-47
2023/05/19 00:46:07;;;;;;;8.63;4.03;;;13.60;80.70;;;;;;5006346;28;20530;-47
2023/05/19 00:48:53;;;;;;;9.57;4.43;;;13.50;81.00;;;;;;5012293;28;20033;-46
2023/05/19 00:51:40;;;;;;;9.02;4.40;;;13.40;81.40;;;;;;5012410;28;20625;-48
2023/05/19 00:54:26;;;;;;;6.55;3.80;;;13.30;81.70;;;;;;5012273;28;20083;-46
2023/05/19 00:57:13;;;;;;;8.90;4.28;;;13.30;81.90;;;;;;5010659;28;20529;-47
2023/05/19 01:00:00;;;;;;;7.57;4.78;;;13.20;82.10;;;;;;5011714;28;20042;-47
2023/05/19 01:02:46;;;;;;;9.02;4.28;;;13.10;82.60;;;;;;4997839;28;20060;-49
2023/05/19 01:05:32;;;;;;;7.25;4.15;;;13.10;82.80;;;;;;5013138;28;20116;-46
2023/05/19 01:08:18;;;;;;;10.35;4.45;;;13.10;83.60;;;;;;5014097;28;20030;-46
2023/05/19 01:11:05;;;;;;;8.45;4.43;;;13.00;83.10;;;;;;5010968;28;20089;-47
2023/05/19 01:13:51;;;;;;;6.55;4.90;;;13.00;84.10;;;;;;5011403;28;20041;-46
2023/05/19 01:16:43;;;;;;;11.13;4.28;;;13.00;83.60;;;;;;5009936;28;20041;-48
2023/05/19 01:19:42;;;;;;;9.45;4.72;;;13.00;83.80;;;;;;5011184;28;20022;-49
2023/05/19 01:23:15;;;;;;;10.65;4.72;;;12.80;84.30;;;;;;5011038;28;20026;-47
2023/05/19 01:26:15;;;;;;;7.80;4.95;;;12.80;85.30;;;;;;5011797;28;20116;-51
2023/05/19 01:29:27;;;;;;;11.57;4.43;;;12.70;84.90;;;;;;5011188;28;20033;-47
2023/05/19 01:32:15;;;;;;;10.45;5.15;;;12.70;85.40;;;;;;5011523;28;20025;-49
2023/05/19 01:35:02;;;;;;;8.38;4.80;;;12.70;86.00;;;;;;5011706;28;20033;-48
2023/05/19 01:37:50;;;;;;;13.90;5.70;;;12.50;86.60;;;;;;5010932;28;20416;-49
2023/05/19 01:40:38;;;;;;;7.47;4.55;;;12.50;87.20;;;;;;5010978;28;20038;-49
2023/05/19 01:43:25;;;;;;;8.77;4.53;;;12.40;87.40;;;;;;4991859;28;20073;-48
2023/05/19 01:46:12;;;;;;;10.18;5.00;;;12.40;87.80;;;;;;4995782;28;20033;-48
2023/05/19 01:48:59;;;;;;;8.75;5.10;;;12.40;88.10;;;;;;5011442;28;20026;-51
2023/05/19 01:51:45;;;;;;;7.03;5.00;;;12.30;88.50;;;;;;5011172;28;20038;-48
2023/05/19 01:54:31;;;;;;;7.88;4.35;;;12.30;88.80;;;;;;5018711;28;20025;-50
2023/05/19 01:57:31;;;;;;;10.15;5.60;;;12.30;89.10;;;;;;5029845;28;20033;-48
2023/05/19 02:00:45;;;;;;;10.13;4.78;;;12.20;89.40;;;;;;5011116;28;20088;-48
2023/05/19 02:03:39;;;;;;;9.93;4.70;;;12.00;90.10;;;;;;5010192;28;20049;-48
2023/05/19 02:06:48;;;;;;;10.50;5.72;;;12.00;90.30;;;;;;5009891;28;20030;-49
2023/05/19 02:09:39;;;;;;;7.95;5.10;;;11.90;90.40;;;;;;5012836;28;20493;-47
2023/05/19 02:12:34;;;;;;;8.70;4.95;;;11.90;90.50;;;;;;5014851;28;20045;-51
2023/05/19 02:15:25;;;;;;;11.00;4.95;;;11.90;90.70;;;;;;5015503;28;20022;-49
2023/05/19 02:18:12;;;;;;;12.73;5.13;;;11.90;90.70;;;;;;5013952;28;20033;-50
2023/05/19 02:20:58;;;;;;;11.07;5.03;;;11.90;91.00;;;;;;5014800;28;20026;-49
2023/05/19 02:23:44;;;;;;;8.05;4.72;;;11.80;91.00;;;;;;5014998;28;20041;-50
2023/05/19 02:26:30;;;;;;;10.00;5.28;;;11.80;91.10;;;;;;5013864;28;20037;-48
2023/05/19 02:29:16;;;;;;;8.93;5.43;;;11.90;91.10;;;;;;5014988;28;20040;-48
2023/05/19 02:32:03;;;;;;;8.80;5.25;;;11.80;91.20;;;;;;5013768;28;20022;-49
2023/05/19 02:34:48;;;;;;;8.90;4.97;;;11.80;91.30;;;;;;5014131;28;20519;-48
2023/05/19 02:37:34;;;;;;;10.73;5.18;;;11.80;91.50;;;;;;5014907;28;20032;-47
2023/05/19 02:40:21;;;;;;;11.55;5.50;;;11.70;91.80;;;;;;5014506;28;20073;-47
2023/05/19 02:43:07;;;;;;;12.55;5.25;;;11.70;91.70;;;;;;5014621;28;20033;-48
2023/05/19 02:45:53;;;;;;;8.68;4.75;;;11.70;91.90;;;;;;5015535;28;20085;-48
2023/05/19 02:48:39;;;;;;;8.63;5.03;;;11.60;92.20;;;;;;5014912;28;20038;-48
2023/05/19 02:51:25;;;;;;;9.40;5.10;;;11.50;92.20;;;;;;5013526;28;20116;-49
2023/05/19 02:54:11;;;;;;;9.60;4.85;;;11.50;92.30;;;;;;5000408;28;20510;-49
2023/05/19 02:56:57;;;;;;;12.90;5.43;;;11.50;92.40;;;;;;5014150;28;20049;-48
2023/05/19 02:59:43;;;;;;;8.75;5.43;;;11.40;92.60;;;;;;5016316;28;20034;-48
2023/05/19 03:02:29;;;;;;;8.35;5.53;;;11.40;92.60;;;;;;5002186;28;20042;-50
2023/05/19 03:05:15;;;;;;;10.85;5.32;;;11.30;92.90;;;;;;5016073;28;20085;-47
2023/05/19 03:08:01;;;;;;;9.15;5.13;;;11.30;93.00;;;;;;5014953;28;20030;-47
2023/05/19 03:10:47;;;;;;;8.85;5.05;;;11.20;93.00;;;;;;5014659;28;20030;-47
2023/05/19 03:13:33;;;;;;;11.90;5.93;;;11.20;93.20;;;;;;5014723;28;20104;-48
2023/05/19 03:16:20;;;;;;;6.88;4.93;;;11.20;93.20;;;;;;5013298;28;20030;-49
2023/05/19 03:19:07;;;;;;;6.57;4.60;;;11.20;93.30;;;;;;5013135;28;20026;-49
2023/05/19 03:21:55;;;;;;;10.43;5.20;;;11.30;93.40;;;;;;4999109;28;20075;-47
2023/05/19 03:24:41;;;;;;;12.32;4.97;;;11.20;93.60;;;;;;5013065;28;20034;-47
2023/05/19 03:27:27;;;;;;;8.80;4.95;;;11.10;93.50;;;;;;5013203;28;20095;-47
2023/05/19 03:30:13;;;;;;;8.27;4.93;;;11.10;93.60;;;;;;5012188;28;20017;-49
2023/05/19 03:33:00;;;;;;;8.38;4.78;;;11.10;93.60;;;;;;5013648;28;20022;-49
2023/05/19 03:35:46;;;;;;;9.60;5.45;;;11.10;93.60;;;;;;5005183;28;20069;-48
2023/05/19 03:38:32;;;;;;;7.30;4.28;;;11.10;94.10;;;;;;5013512;28;20022;-50
2023/05/19 03:41:18;;;;;;;13.38;4.95;;;11.10;93.70;;;;;;5012721;28;20037;-49
2023/05/19 03:44:04;;;;;;;8.60;5.32;;;11.10;93.90;;;;;;5014037;28;20029;-50
2023/05/19 03:46:50;;;;;;;9.98;4.60;;;11.10;94.00;;;;;;5011870;28;20022;-48
2023/05/19 03:49:36;;;;;;;7.85;5.07;;;11.10;94.10;;;;;;5013189;28;20064;-47
2023/05/19 03:52:22;;;;;;;8.45;5.28;;;11.20;94.00;;;;;;4999212;28;20391;-48
2023/05/19 03:55:08;;;;;;;7.90;4.82;;;11.20;93.80;;;;;;5009212;28;20518;-48
2023/05/19 03:57:55;;;;;;;8.18;5.43;;;11.30;93.80;;;;;;4993283;28;20065;-48
2023/05/19 04:00:41;;;;;;;10.57;5.20;;;11.30;93.80;;;;;;5003458;28;20038;-47
2023/05/19 04:03:27;;;;;;;8.20;4.90;;;11.30;93.90;;;;;;5015202;28;20026;-48
2023/05/19 04:06:13;;;;;;;8.27;5.28;;;11.30;94.00;;;;;;5015692;28;20038;-46
2023/05/19 04:09:00;;;;;;;7.28;5.30;;;11.30;93.90;;;;;;5011253;28;20576;-49
2023/05/19 04:11:46;;;;;;;8.35;4.60;;;11.20;94.20;;;;;;5013084;28;20084;-48
2023/05/19 04:14:32;;;;;;;6.65;4.70;;;11.20;94.00;;;;;;5013449;28;20096;-48
2023/05/19 04:17:18;;;;;;;6.72;4.43;;;11.30;94.10;;;;;;5011764;28;20034;-47
2023/05/19 04:20:05;;;;;;;12.98;5.32;;;11.40;94.00;;;;;;5012687;28;20122;-47
2023/05/19 04:22:51;;;;;;;10.88;4.97;;;11.40;94.00;;;;;;5012633;28;20026;-50
2023/05/19 04:25:37;;;;;;;7.53;4.97;;;11.40;94.00;;;;;;5013129;28;20108;-47
2023/05/19 04:28:23;;;;;;;10.57;4.85;;;11.40;94.00;;;;;;5012426;28;20084;-47
2023/05/19 04:31:11;;;;;;;9.57;4.78;;;11.50;94.00;;;;;;5011388;28;20053;-47
2023/05/19 04:33:57;;;;;;;9.50;4.75;;;11.40;94.20;;;;;;5011976;28;20379;-51
2023/05/19 04:36:43;;;;;;;8.57;4.78;;;11.40;94.40;;;;;;5011738;28;20126;-48
2023/05/19 04:39:30;;;;;;;12.23;4.47;;;11.50;94.40;;;;;;5012711;28;20457;-48
2023/05/19 04:42:18;;;;;;;10.10;5.20;;;11.50;94.20;;;;;;5011817;28;20030;-49
2023/05/19 04:45:04;;;;;;;11.05;6.03;;;11.60;94.10;;;;;;5011916;28;20042;-48
2023/05/19 04:47:51;;;;;;;9.52;5.03;;;11.50;94.10;;;;;;5011776;28;20060;-48
2023/05/19 04:50:40;;;;;;;8.40;4.47;;;11.50;94.30;;;;;;5011750;28;20041;-47
2023/05/19 04:53:28;;;;;;;8.82;4.80;;;11.50;94.20;;;;;;5012500;28;20045;-48
2023/05/19 04:56:14;;;;;;;10.50;5.32;;;11.60;94.10;;;;;;4998995;28;20038;-48
2023/05/19 04:59:00;;;;;;;10.15;4.55;;;11.50;94.40;;;;;;5012202;28;20192;-52
2023/05/19 05:01:46;;;;;;;12.77;4.75;;;11.60;94.30;;;;;;5011607;28;20625;-48
2023/05/19 05:04:32;;;;;;;9.10;5.03;;;11.70;94.20;;;;;;5004550;28;20034;-52
2023/05/19 05:07:18;;;;;;;8.82;4.00;;;11.70;94.20;;;;;;5011384;28;20060;-53
2023/05/19 05:10:05;;;;;;;7.32;4.20;;;11.70;94.10;;;;;;5011828;28;20022;-54
2023/05/19 05:12:51;;;;;;;7.47;4.97;;;11.60;94.50;;;;;;5011738;28;20469;-52
2023/05/19 05:15:37;;;;;;;7.90;4.90;;;11.50;94.70;;;;;;5012020;28;20104;-48
2023/05/19 05:18:23;;;;;;;8.18;4.88;;;11.60;94.70;;;;;;5011367;28;20414;-49
2023/05/19 05:21:09;;;;;;;7.85;4.72;;;11.60;94.80;;;;;;4992650;28;20044;-49
2023/05/19 05:23:55;;;;;;;7.50;4.40;;;11.70;94.80;;;;;;5012919;28;20406;-49
2023/05/19 05:26:42;;;;;;;14.07;7.80;;;11.80;94.70;;;;;;5030559;28;20079;-49
2023/05/19 05:29:27;;;;;;;8.52;4.78;;;11.80;94.70;;;;;;5031654;28;20448;-48
2023/05/19 05:32:15;;;;;;;6.35;4.82;;;11.90;94.50;;;;;;5014291;28;20426;-50
2023/05/19 05:35:01;;;;;;;8.43;4.47;;;11.90;94.40;;;;;;5011548;28;20087;-47
2023/05/19 05:37:47;;;;;;;7.97;4.90;;;11.90;94.60;;;;;;4997993;28;20041;-46
2023/05/19 05:40:33;;;;;;;11.82;4.90;;;11.90;94.70;;;;;;5011256;28;20436;-45
2023/05/19 05:43:19;;;;;;;13.50;5.10;;;11.90;94.50;;;;;;5010825;28;20033;-46
2023/05/19 05:46:05;;;;;;;9.07;4.90;;;11.90;94.70;;;;;;5008441;28;20026;-45
2023/05/19 05:48:51;;;;;;;8.27;5.20;;;11.90;94.50;;;;;;5011308;28;20034;-47
2023/05/19 05:51:37;;;;;;;10.35;4.53;;;12.00;94.50;;;;;;5010323;28;20030;-46
2023/05/19 05:54:24;;;;;;;9.60;4.90;;;12.10;94.60;;;;;;5011600;28;20042;-46
2023/05/19 05:57:10;;;;;;;10.38;5.13;;;12.20;94.40;;;;;;5012268;28;20114;-48
2023/05/19 05:59:56;;;;;;;10.55;4.65;;;12.30;94.40;;;;;;5011352;28;20038;-52
2023/05/19 06:02:46;;;;;;;10.25;5.60;;;12.50;94.00;;;;;;5011159;28;20499;-50
2023/05/19 06:05:32;;;;;;;9.98;5.05;;;12.50;94.20;;;;;;5011560;28;20512;-45
2023/05/19 06:08:17;;;;;;;10.43;4.57;;;12.40;94.10;;;;;;5011334;28;20037;-48
2023/05/19 06:11:07;;;;;;;11.38;4.90;;;12.30;94.40;;;;;;5010540;28;20406;-45
2023/05/19 06:13:53;;;;;;;8.75;5.03;;;12.50;94.40;;;;;;5010833;28;20030;-49
2023/05/19 06:16:39;;;;;;;10.45;5.60;;;12.40;94.30;;;;;;5009983;28;20392;-49
2023/05/19 06:19:25;;;;;;;9.70;4.60;;;12.50;94.00;;;;;;5011329;28;20403;-49
2023/05/19 06:22:11;;;;;;;7.45;5.05;;;12.40;94.10;;;;;;5009196;28;20038;-48
2023/05/19 06:24:57;;;;;;;7.55;4.85;;;12.30;94.30;;;;;;5011182;28;20034;-49
2023/05/19 06:27:43;;;;;;;7.55;5.30;;;12.30;94.30;;;;;;5010665;28;20087;-48
2023/05/19 06:30:28;;;;;;;11.13;5.65;;;12.30;94.70;;;;;;5009326;28;20038;-48
2023/05/19 06:33:14;;;;;;;8.52;5.20;;;12.30;94.80;;;;;;5010543;28;20026;-49
2023/05/19 06:36:00;;;;;;;8.38;5.00;;;12.30;94.70;;;;;;5010818;28;20406;-50
2023/05/19 06:38:52;;;;;;;10.35;5.22;;;12.40;95.00;;;;;;5009502;28;20441;-49
2023/05/19 06:41:38;;;;;;;20.60;5.60;;;12.50;95.60;;;;;;4991703;28;20050;-47
2023/05/19 06:44:24;;;;;;;22.58;7.07;;;12.80;95.50;;;;;;5000808;28;20096;-50
2023/05/19 06:47:10;;;;;;;14.02;5.45;;;13.00;94.50;;;;;;5010064;28;20022;-48
2023/05/19 06:49:56;;;;;;;11.82;5.43;;;13.20;94.00;;;;;;5009211;28;20038;-48
2023/05/19 06:52:43;;;;;;;8.63;4.57;;;13.20;93.90;;;;;;5008901;28;20058;-48
2023/05/19 06:55:29;;;;;;;6.85;4.72;;;13.20;94.20;;;;;;5012304;28;20503;-51
2023/05/19 06:58:15;;;;;;;11.95;5.13;;;13.20;94.20;;;;;;5014308;28;20600;-49
2023/05/19 07:01:01;;;;;;;8.10;4.97;;;13.40;94.60;;;;;;5015253;28;20030;-49
2023/05/19 07:03:47;;;;;;;6.20;5.00;;;13.50;94.10;;;;;;5016102;28;20058;-49
2023/05/19 07:06:33;;;;;;;8.55;4.63;;;13.50;94.00;;;;;;5015335;28;20029;-49
2023/05/19 07:09:19;;;;;;;9.40;4.93;;;13.70;94.20;;;;;;5016562;28;20026;-49
2023/05/19 07:12:08;;;;;;;9.63;4.93;;;13.80;93.80;;;;;;5013532;28;20408;-48
2023/05/19 07:14:53;;;;;;;8.07;5.20;;;13.80;93.90;;;;;;5013988;28;20026;-49
2023/05/19 07:17:39;;;;;;;8.10;4.70;;;13.90;93.70;;;;;;5013782;28;20026;-50
2023/05/19 07:20:25;;;;;;;9.98;4.63;;;13.90;93.90;;;;;;5013110;28;20388;-49
2023/05/19 07:23:11;;;;;;;8.25;4.53;;;14.00;93.60;;;;;;5012923;28;20088;-50
2023/05/19 07:25:57;;;;;;;7.40;4.65;;;14.20;93.40;;;;;;5012725;28;20052;-49
2023/05/19 07:28:43;;;;;;;9.63;4.72;;;14.30;93.10;;;;;;5013124;28;20463;-52
2023/05/19 07:31:29;;;;;;;7.30;4.60;;;14.40;93.30;;;;;;5014164;28;20030;-48
2023/05/19 07:34:15;;;;;;;11.68;5.55;;;14.50;93.10;;;;;;5014534;28;20025;-49
2023/05/19 07:37:02;;;;;;;9.18;4.88;;;14.50;92.90;;;;;;4999177;28;20471;-49
2023/05/19 07:39:48;;;;;;;7.35;4.43;;;14.40;92.70;;;;;;5013234;28;20038;-48
2023/05/19 07:42:34;;;;;;;10.05;4.22;;;14.50;92.90;;;;;;5013349;28;20030;-49
2023/05/19 07:45:20;;;;;;;7.88;4.80;;;14.60;92.60;;;;;;5015307;28;20113;-49
2023/05/19 07:48:06;;;;;;;7.97;4.65;;;14.60;92.50;;;;;;5015435;28;20056;-49
2023/05/19 07:50:52;;;;;;;7.15;4.28;;;14.70;92.40;;;;;;5017864;28;20406;-53
2023/05/19 07:53:38;;;;;;;7.80;4.72;;;14.80;92.00;;;;;;5013760;28;20048;-48
2023/05/19 07:56:25;;;;;;;9.07;4.85;;;14.90;92.00;;;;;;5014173;28;20026;-52
2023/05/19 07:59:11;;;;;;;7.22;4.15;;;15.00;92.10;;;;;;5020692;28;20038;-54
2023/05/19 08:01:57;;;;;;;7.07;3.83;;;15.10;92.00;;;;;;5014498;28;20026;-49
2023/05/19 08:04:43;;;;;;;7.97;4.10;;;15.20;92.00;;;;;;5014205;28;20104;-48
2023/05/19 08:07:29;;;;;;;6.90;4.25;;;15.30;91.60;;;;;;5011384;28;20038;-48
2023/05/19 08:10:15;;;;;;;8.00;4.32;;;15.60;91.30;;;;;;5011905;28;20494;-48
2023/05/19 08:13:01;;;;;;;10.30;4.22;;;15.60;91.20;;;;;;5013635;28;20026;-47
2023/05/19 08:15:47;;;;;;;8.45;3.83;;;15.70;91.40;;;;;;5011821;28;20091;-47
2023/05/19 08:18:38;;;;;;;5.78;4.03;;;15.90;91.10;;;;;;5012493;28;20034;-48
2023/05/19 08:21:33;;;;;;;7.57;4.65;;;16.10;90.80;;;;;;5012997;28;20058;-52
2023/05/19 08:24:19;;;;;;;8.05;3.90;;;16.30;90.40;;;;;;5012484;28;20120;-50
2023/05/19 08:27:05;;;;;;;8.40;4.13;;;16.40;90.30;;;;;;5011065;28;20061;-51
2023/05/19 08:29:51;;;;;;;6.65;3.80;;;16.30;90.10;;;;;;5012292;28;20020;-50
2023/05/19 08:32:37;;;;;;;6.65;3.90;;;16.30;90.20;;;;;;5013981;28;20026;-48
2023/05/19 08:35:27;;;;;;;6.43;3.80;;;16.60;90.30;;;;;;5013617;28;20418;-49
2023/05/19 08:38:12;;;;;;;5.72;4.20;;;16.70;90.40;;;;;;5012388;28;20026;-48
2023/05/19 08:40:58;;;;;;;4.32;3.40;;;16.80;90.10;;;;;;5006258;28;20030;-45
2023/05/19 08:43:44;;;;;;;8.38;3.50;;;16.60;86.00;;;;;;5009554;28;20068;-47
2023/05/19 08:46:31;;;;;;;7.18;3.53;;;16.50;86.80;;;;;;5010265;28;20494;-47
2023/05/19 08:49:25;;;;;;;4.50;3.50;;;16.50;85.70;;;;;;5015776;28;20030;-49
2023/05/19 08:52:40;;;;;;;6.93;4.13;;;16.40;85.20;;;;;;5011508;28;20100;-49
2023/05/19 08:55:45;;;;;;;5.07;3.22;;;16.30;84.70;;;;;;5011590;28;20108;-47
2023/05/19 08:58:32;;;;;;;4.22;3.17;;;16.50;85.20;;;;;;5013072;28;20049;-49
2023/05/19 09:01:19;;;;;;;7.07;4.00;;;17.00;84.70;;;;;;5013727;28;20014;-47
2023/05/19 09:04:05;;;;;;;5.88;3.42;;;17.00;81.90;;;;;;5011580;28;20040;-47
2023/05/19 09:06:51;;;;;;;6.07;3.75;;;16.80;83.30;;;;;;5010682;28;20037;-48
2023/05/19 09:09:39;;;;;;;7.38;3.55;;;16.90;84.40;;;;;;5011955;28;20495;-48
2023/05/19 09:12:25;;;;;;;4.53;3.55;;;17.00;83.50;;;;;;5012064;28;20030;-52
2023/05/19 09:15:12;;;;;;;4.53;3.15;;;16.90;83.30;;;;;;5011140;28;20491;-48
2023/05/19 09:18:10;;;;;;;11.65;4.68;;;17.00;83.30;;;;;;5010877;28;20084;-49
2023/05/19 09:21:06;;;;;;;6.03;3.10;;;17.20;83.10;;;;;;5010984;28;20030;-48
2023/05/19 09:23:54;;;;;;;4.88;3.20;;;17.40;81.80;;;;;;5011791;28;20529;-48
2023/05/19 09:26:41;;;;;;;5.45;3.20;;;17.60;81.80;;;;;;5010903;28;20641;-48
2023/05/19 09:29:27;;;;;;;3.92;2.85;;;17.80;80.50;;;;;;5011805;28;20033;-47
2023/05/19 09:32:24;;;;;;;5.00;3.53;;;18.10;80.00;;;;;;5011539;28;20041;-48
2023/05/19 09:35:12;;;;;;;8.18;3.65;;;18.20;79.70;;;;;;5009648;28;20410;-48
2023/05/19 09:37:59;;;;;;;4.85;3.20;;;18.30;79.50;;;;;;5012011;28;20034;-48
2023/05/19 09:40:48;;;;;;;13.32;3.50;;;18.20;78.80;;;;;;5011628;28;20022;-48
2023/05/19 09:43:35;;;;;;;5.15;3.20;;;18.10;78.40;;;;;;5010408;28;20030;-52
2023/05/19 09:46:27;;;;;;;7.70;4.07;;;17.90;78.80;;;;;;5012761;28;20109;-47
2023/05/19 09:49:17;;;;;;;5.38;3.40;;;17.60;78.90;;;;;;5012162;28;20638;-45
2023/05/19 09:52:03;;;;;;;10.23;3.83;;;17.10;78.80;;;;;;5011550;28;20499;-46
2023/05/19 09:54:50;;;;;;;10.15;4.38;;;16.90;81.30;;;;;;5010023;28;20406;-52
2023/05/19 09:57:37;;;;;;;9.73;4.85;;;16.70;81.70;;;;;;5011121;28;20025;-46
2023/05/19 10:00:25;;;;;;;6.47;4.05;;;17.00;81.70;;;;;;5011440;28;20052;-50
2023/05/19 10:03:12;;;;;;;6.57;3.22;;;17.10;80.70;;;;;;5011014;28;20037;-46
2023/05/19 10:06:03;;;;;;;11.15;4.00;;;17.30;80.60;;;;;;5011859;28;20152;-48
2023/05/19 10:08:51;;;;;;;7.13;3.80;;;17.30;80.80;;;;;;5011309;28;20045;-47
2023/05/19 10:11:38;;;;;;;6.15;3.80;;;17.30;80.80;;;;;;5011417;28;20032;-46
2023/05/19 10:14:26;;;;;;;5.40;3.30;;;17.20;78.80;;;;;;5011441;28;20510;-50
2023/05/19 10:17:13;;;;;;;4.15;3.25;;;17.00;78.60;;;;;;5011123;28;20030;-49
2023/05/19 10:19:59;;;;;;;3.58;3.00;;;17.10;79.20;;;;;;5010679;28;20082;-51
2023/05/19 10:22:45;;;;;;;4.63;3.17;;;17.30;78.90;;;;;;5011489;28;20053;-50
2023/05/19 10:25:33;;;;;;;4.43;3.28;;;17.60;78.50;;;;;;5010252;28;20026;-51
2023/05/19 10:28:26;;;;;;;5.28;3.40;;;17.60;77.00;;;;;;5010905;28;20026;-51
2023/05/19 10:31:17;;;;;;;4.88;3.38;;;17.90;76.70;;;;;;5014488;28;20030;-50
2023/05/19 10:34:17;;;;;;;7.28;3.08;;;17.90;77.30;;;;;;5014556;28;20033;-54
2023/05/19 10:37:09;;;;;;;4.45;2.70;;;17.80;76.80;;;;;;5014873;28;20038;-53
2023/05/19 10:39:57;;;;;;;4.72;2.70;;;17.60;76.10;;;;;;5014778;28;20153;-51
2023/05/19 10:43:22;;;;;;;4.75;3.00;;;17.70;76.20;;;;;;5013967;28;20112;-56
2023/05/19 10:46:08;;;;;;;4.80;3.13;;;17.80;75.50;;;;;;5014382;28;20022;-52
2023/05/19 10:48:54;;;;;;;3.53;2.92;;;17.90;75.10;;;;;;5014630;28;20117;-51
2023/05/19 10:51:44;;;;;;;5.82;3.40;;;18.40;75.50;;;;;;5013765;28;20104;-52
2023/05/19 10:54:46;;;;;;;7.65;4.10;;;18.80;74.60;;;;;;5014395;28;20028;-50
2023/05/19 10:57:32;;;;;;;6.88;3.38;;;18.50;74.00;;;;;;5014219;28;20022;-51
2023/05/19 11:00:29;;;;;;;5.22;3.40;;;18.30;73.80;;;;;;5013814;28;20407;-51
2023/05/19 11:03:17;;;;;;;5.68;3.20;;;18.30;73.90;;;;;;5014284;28;20072;-53
2023/05/19 11:06:27;;;;;;;6.60;3.25;;;18.40;74.30;;;;;;5015401;28;20689;-46
2023/05/19 11:09:14;;;;;;;5.07;3.25;;;18.10;74.20;;;;;;5013925;28;20129;-46
2023/05/19 11:12:02;;;;;;;4.72;3.08;;;18.40;75.10;;;;;;5015501;28;20117;-47
2023/05/19 11:14:52;;;;;;;5.63;2.90;;;18.60;73.20;;;;;;5013867;28;20537;-48
2023/05/19 11:17:42;;;;;;;4.65;2.85;;;18.70;72.90;;;;;;5014210;28;20034;-47
2023/05/19 11:20:33;;;;;;;4.68;3.22;;;18.90;72.20;;;;;;5014269;28;20029;-48
2023/05/19 11:23:20;;;;;;;5.93;2.90;;;18.80;70.60;;;;;;5001576;28;20116;-48
2023/05/19 11:26:07;;;;;;;4.03;2.90;;;18.70;71.90;;;;;;5015149;28;20029;-48
2023/05/19 11:28:53;;;;;;;3.85;3.00;;;18.60;70.70;;;;;;5013934;28;20026;-49
2023/05/19 11:31:42;;;;;;;8.55;3.25;;;18.70;71.40;;;;;;5014148;28;20068;-48
2023/05/19 11:34:30;;;;;;;4.35;2.90;;;18.90;72.20;;;;;;5015184;28;20034;-50
2023/05/19 11:37:16;;;;;;;4.90;3.10;;;18.90;71.20;;;;;;5013859;28;20054;-45
2023/05/19 11:40:06;;;;;;;10.05;3.45;;;18.80;71.50;;;;;;5013932;28;20270;-53
2023/05/19 11:42:53;;;;;;;5.55;3.40;;;18.80;72.10;;;;;;5014048;28;20042;-50
2023/05/19 11:45:39;;;;;;;6.95;3.30;;;18.70;72.90;;;;;;5013590;28;20407;-51
2023/05/19 11:48:25;;;;;;;6.70;3.03;;;18.40;73.80;;;;;;5013930;28;20434;-53
2023/05/19 11:51:11;;;;;;;7.25;3.20;;;18.30;74.10;;;;;;5012990;28;20482;-53
2023/05/19 11:53:58;;;;;;;5.82;3.20;;;18.70;74.00;;;;;;5013467;28;20067;-51
2023/05/19 11:56:44;;;;;;;5.35;3.75;;;19.00;73.30;;;;;;5012491;28;20117;-50
2023/05/19 11:59:37;;;;;;;5.50;3.50;;;19.30;72.50;;;;;;5013493;28;20564;-52
2023/05/19 12:02:24;;;;;;;7.70;3.50;;;19.50;72.00;;;;;;5013270;28;20045;-51
2023/05/19 12:05:21;;;;;;;4.75;3.28;;;19.40;72.10;;;;;;5013170;28;20026;-51
2023/05/19 12:08:07;;;;;;;8.00;3.03;;;19.60;72.00;;;;;;5013193;28;20050;-51
2023/05/19 12:10:55;;;;;;;5.68;3.28;;;19.70;72.20;;;;;;5012868;28;20026;-52
2023/05/19 12:13:41;;;;;;;5.80;3.67;;;20.10;72.00;;;;;;5013269;28;20088;-48
2023/05/19 12:16:36;;;;;;;5.72;3.30;;;20.20;70.70;;;;;;5013490;28;20498;-47
2023/05/19 12:19:24;;;;;;;4.65;3.35;;;20.40;70.40;;;;;;5013505;28;20072;-48
2023/05/19 12:22:14;;;;;;;5.10;3.28;;;20.50;69.90;;;;;;5012400;28;20038;-50
2023/05/19 12:25:01;;;;;;;5.30;3.47;;;20.60;69.70;;;;;;5012364;28;20072;-47
2023/05/19 12:27:48;;;;;;;4.30;3.05;;;20.50;69.70;;;;;;5012823;28;20084;-48
2023/05/19 12:30:34;;;;;;;6.15;3.78;;;20.30;70.20;;;;;;5012544;28;20037;-48
2023/05/19 12:33:21;;;;;;;7.05;4.13;;;20.20;70.00;;;;;;5011943;28;20030;-52
2023/05/19 12:36:08;;;;;;;5.32;3.80;;;19.80;70.30;;;;;;5013026;28;20457;-49
2023/05/19 12:38:54;;;;;;;6.60;3.67;;;19.50;70.80;;;;;;5011953;28;20056;-51
2023/05/19 12:41:44;;;;;;;4.32;3.60;;;19.40;72.20;;;;;;5012393;28;20387;-49
2023/05/19 12:44:30;;;;;;;6.70;4.00;;;19.90;72.20;;;;;;5012735;28;20037;-50
2023/05/19 12:47:18;;;;;;;5.60;3.90;;;20.50;71.80;;;;;;5012072;28;20080;-49
2023/05/19 12:50:08;;;;;;;7.35;3.53;;;20.40;69.00;;;;;;5012257;28;20779;-52
2023/05/19 12:52:54;;;;;;;6.95;3.83;;;20.50;68.80;;;;;;5011477;28;20500;-50
2023/05/19 12:55:44;;;;;;;5.63;3.63;;;20.50;70.10;;;;;;5012309;28;20108;-49
2023/05/19 12:58:33;;;;;;;5.57;3.40;;;20.60;68.60;;;;;;5012330;28;20037;-50
2023/05/19 13:01:19;;;;;;;9.05;6.05;;;20.60;68.50;;;;;;5012566;28;20028;-50
2023/05/19 13:04:08;;;;;;;5.57;3.75;;;20.80;68.70;;;;;;5012334;28;20057;-51
2023/05/19 13:06:57;;;;;;;6.65;3.97;;;20.70;69.50;;;;;;5012720;28;20029;-48
2023/05/19 13:09:43;;;;;;;4.90;3.45;;;20.60;69.80;;;;;;4999289;28;20026;-47
2023/05/19 13:12:29;;;;;;;5.25;3.80;;;20.80;68.70;;;;;;5012783;28;20030;-50
2023/05/19 13:15:15;;;;;;;4.75;3.33;;;20.70;69.50;;;;;;5010903;28;20026;-48
2023/05/19 13:18:03;;;;;;;5.28;3.92;;;20.90;69.00;;;;;;5010876;28;20054;-50
2023/05/19 13:20:50;;;;;;;5.45;3.50;;;21.40;69.10;;;;;;5011687;28;20047;-48
2023/05/19 13:23:36;;;;;;;6.43;3.58;;;21.40;68.20;;;;;;5011525;28;20384;-48
2023/05/19 13:26:22;;;;;;;5.22;3.88;;;21.30;68.50;;;;;;5011477;28;20116;-48
2023/05/19 13:29:08;;;;;;;5.30;3.60;;;21.60;68.60;;;;;;5011316;28;20022;-47
2023/05/19 13:31:54;;;;;;;9.27;4.05;;;21.40;68.50;;;;;;5011688;28;20022;-46
2023/05/19 13:34:40;;;;;;;15.02;7.50;;;21.00;68.50;;;;;;5010537;28;20030;-48
2023/05/19 13:37:27;;;;;;;6.65;3.83;;;20.50;69.80;;;;;;5011370;28;20038;-52
2023/05/19 13:40:13;;;;;;;4.40;3.50;;;20.40;70.50;;;;;;5010005;28;20034;-48
2023/05/19 13:42:59;;;;;;;4.60;3.40;;;20.50;70.20;;;;;;5010871;28;20052;-47
2023/05/19 13:45:46;;;;;;;4.53;3.67;;;20.80;69.80;;;;;;5011781;28;20069;-48
2023/05/19 13:48:32;;;;;;;5.72;3.70;;;21.10;69.50;;;;;;5011253;28;20022;-45
2023/05/19 13:51:18;;;;;;;6.55;3.47;;;21.20;68.90;;;;;;5010027;28;20053;-50
2023/05/19 13:54:04;;;;;;;4.80;3.53;;;21.10;69.30;;;;;;5012022;28;20080;-46
2023/05/19 13:56:50;;;;;;;5.05;3.60;;;20.70;69.00;;;;;;5011911;28;20038;-51
2023/05/19 13:59:36;;;;;;;6.70;3.40;;;20.70;69.20;;;;;;5010372;28;20520;-49
2023/05/19 14:02:22;;;;;;;5.90;3.75;;;20.60;69.50;;;;;;5010895;28;20045;-50
2023/05/19 14:05:08;;;;;;;6.57;3.53;;;20.60;70.00;;;;;;5012234;28;20030;-53
2023/05/19 14:07:54;;;;;;;4.15;3.60;;;21.00;69.10;;;;;;5015309;28;20030;-49
2023/05/19 14:10:41;;;;;;;5.63;3.55;;;21.20;68.20;;;;;;5014982;28;20487;-48
2023/05/19 14:13:27;;;;;;;5.68;3.50;;;21.10;68.20;;;;;;5014557;28;20030;-48
2023/05/19 14:16:13;;;;;;;4.78;3.53;;;21.00;68.40;;;;;;5014728;28;20036;-49
2023/05/19 14:18:59;;;;;;;4.45;3.60;;;20.80;68.80;;;;;;5015190;28;20038;-46
2023/05/19 14:21:45;;;;;;;4.10;3.60;;;20.80;69.50;;;;;;5015043;28;20025;-49
2023/05/19 14:24:31;;;;;;;6.40;3.53;;;20.70;68.80;;;;;;5014621;28;20030;-52
2023/05/19 14:27:17;;;;;;;10.27;4.05;;;20.60;69.00;;;;;;5014072;28;20026;-50
2023/05/19 14:30:03;;;;;;;6.70;4.25;;;20.60;69.00;;;;;;5014732;28;20029;-54
2023/05/19 14:32:49;;;;;;;4.97;3.67;;;20.10;69.00;;;;;;5014868;28;20040;-50